createdAt,value
2022-08-08T00:10:58.442Z,19.313
2022-08-08T00:26:01.255Z,19.437
2022-08-08T00:41:13.013Z,18.794
2022-08-08T00:56:17.211Z,19.241
2022-08-08T01:11:19.385Z,19.826
2022-08-08T01:26:24.191Z,21.042
2022-08-08T01:41:26.697Z,22.494
2022-08-08T01:56:37.226Z,23.951
2022-08-08T02:12:00.174Z,25.249
2022-08-08T02:27:03.014Z,25.168
2022-08-08T02:42:10.705Z,25.708
2022-08-08T02:57:16.987Z,27.661
2022-08-08T03:12:36.508Z,30.588
2022-08-08T03:28:03.652Z,30.759
2022-08-08T03:43:16.462Z,33.896
2022-08-08T03:58:36.418Z,39.141
2022-08-08T04:14:04.318Z,39.552
2022-08-08T04:29:37.710Z,38.292
2022-08-08T04:44:39.937Z,37.52
2022-08-08T04:59:42.686Z,41.555
2022-08-08T05:14:45.003Z,39.423
2022-08-08T05:29:52.132Z,45.293
2022-08-08T05:44:54.682Z,40.286
2022-08-08T06:00:24.840Z,40.73
2022-08-08T06:15:31.679Z,42.793
2022-08-08T06:30:53.740Z,43.651
2022-08-08T06:45:57.286Z,49.204
2022-08-08T07:00:59.753Z,46.188
2022-08-08T07:16:04.549Z,46.945
2022-08-08T07:31:10.120Z,49.209
2022-08-08T07:46:23.568Z,54.9
2022-08-08T08:02:33.698Z,51.099
2022-08-08T08:17:49.026Z,52.274
2022-08-08T08:32:51.925Z,60.546
2022-08-08T08:47:54.882Z,57.303
2022-08-08T09:03:00.723Z,53.138
2022-08-08T09:18:03.145Z,57.021
2022-08-08T09:33:54.527Z,55.33
2022-08-08T09:49:42.067Z,56.983
2022-08-08T10:04:47.769Z,57.959
2022-08-08T10:19:57.616Z,55.387
2022-08-08T10:35:01.345Z,54.697
2022-08-08T10:50:04.633Z,60.728
2022-08-08T11:05:14.751Z,55.458
2022-08-08T11:20:18.130Z,54.794
2022-08-08T11:35:37.771Z,60.191
2022-08-08T11:50:44.746Z,59.447
2022-08-08T12:05:54.849Z,58.005
2022-08-08T12:20:58.804Z,58.092
2022-08-08T12:36:02.471Z,59.218
2022-08-08T12:51:10.897Z,58.172
2022-08-08T13:06:14.406Z,58.401
2022-08-08T13:21:16.889Z,55.8
2022-08-08T13:36:25.722Z,52.776
2022-08-08T13:51:37.763Z,53.892
2022-08-08T14:06:43.991Z,56.999
2022-08-08T14:21:49.069Z,51.862
2022-08-08T14:36:54.898Z,64.43
2022-08-08T14:51:57.163Z,57.095
2022-08-08T15:06:59.599Z,51.314
2022-08-08T15:22:06.872Z,56.272
2022-08-08T15:37:09.208Z,47.293
2022-08-08T15:52:11.690Z,46.935
2022-08-08T16:07:13.908Z,41.975
2022-08-08T16:22:30.327Z,44.227
2022-08-08T16:37:33.443Z,41.454
2022-08-08T16:55:01.539Z,39.458
2022-08-08T17:10:27.612Z,37.33
2022-08-08T17:25:47.631Z,34.97
2022-08-08T17:40:55.461Z,35.221
2022-08-08T17:56:06.727Z,34.392
2022-08-08T18:11:11.593Z,32.465
2022-08-08T18:26:17.257Z,30.745
2022-08-08T18:41:19.764Z,29.511
2022-08-08T18:56:54.682Z,28.43
2022-08-08T19:11:56.954Z,28.763
2022-08-08T19:26:59.392Z,28.042
2022-08-08T19:42:02.474Z,27.231
2022-08-08T19:57:07.758Z,26.293
2022-08-08T20:12:10.309Z,23.71
2022-08-08T20:27:20.650Z,20.713
2022-08-08T20:42:28.152Z,19.166
2022-08-08T20:57:32.199Z,18.935
2022-08-08T21:12:35.658Z,17.615
2022-08-08T21:28:06.217Z,17.807
2022-08-08T21:43:16.852Z,16.746
2022-08-08T21:58:19.173Z,15.631
2022-08-08T22:13:27.165Z,15.818
2022-08-08T22:29:15.001Z,15.195
2022-08-08T22:45:03.575Z,14.883
2022-08-08T23:00:07.627Z,15.761
2022-08-08T23:15:11.172Z,15.837
2022-08-08T23:31:45.019Z,15.907
2022-08-08T23:49:07.547Z,15.592
